createdAt,value
2018-04-22T00:01:03.346Z,10.00
2018-04-22T00:03:30.810Z,10.03
2018-04-22T00:05:58.280Z,10.30
2018-04-22T00:08:25.713Z,8.83
2018-04-22T00:10:53.194Z,8.90
2018-04-22T00:13:20.633Z,8.27
2018-04-22T00:15:48.137Z,9.03
2018-04-22T00:18:15.609Z,9.37
2018-04-22T00:20:43.073Z,9.13
2018-04-22T00:23:10.619Z,10.10
2018-04-22T00:25:38.072Z,9.37
2018-04-22T00:28:05.523Z,10.07
2018-04-22T00:30:32.987Z,9.70
2018-04-22T00:33:00.538Z,9.57
2018-04-22T00:35:28.069Z,9.53
2018-04-22T00:37:56.283Z,8.33
2018-04-22T00:40:23.734Z,9.30
2018-04-22T00:42:51.238Z,9.17
2018-04-22T00:45:18.789Z,8.73
2018-04-22T00:47:46.234Z,9.13
2018-04-22T00:50:13.702Z,9.03
2018-04-22T00:52:41.180Z,8.53
2018-04-22T00:55:08.653Z,9.17
2018-04-22T00:57:36.108Z,9.10
2018-04-22T01:00:03.566Z,8.87
2018-04-22T01:02:31.009Z,8.90
2018-04-22T01:04:58.609Z,9.17
2018-04-22T01:07:26.076Z,8.63
2018-04-22T01:09:53.541Z,9.43
2018-04-22T01:12:20.995Z,9.77
2018-04-22T01:14:48.570Z,8.57
2018-04-22T01:17:16.014Z,8.90
2018-04-22T01:19:43.489Z,9.20
2018-04-22T01:22:10.930Z,9.03
2018-04-22T01:24:38.388Z,9.73
2018-04-22T01:27:05.844Z,9.30
2018-04-22T01:29:33.336Z,9.53
2018-04-22T01:32:00.789Z,9.30
2018-04-22T01:34:28.237Z,9.00
2018-04-22T01:36:55.693Z,10.30
2018-04-22T01:39:23.186Z,9.03
2018-04-22T01:41:50.625Z,9.13
2018-04-22T01:44:18.106Z,9.87
2018-04-22T01:46:45.568Z,9.20
2018-04-22T01:49:13.059Z,8.83
2018-04-22T01:51:42.006Z,9.17
2018-04-22T01:54:09.510Z,8.87
2018-04-22T01:56:36.979Z,9.40
2018-04-22T01:59:04.419Z,9.10
2018-04-22T02:01:31.897Z,8.70
2018-04-22T02:03:59.369Z,8.83
2018-04-22T02:06:26.833Z,9.70
2018-04-22T02:08:54.277Z,9.33
2018-04-22T02:11:21.745Z,9.57
2018-04-22T02:13:49.191Z,9.40
2018-04-22T02:16:16.649Z,10.13
2018-04-22T02:18:44.110Z,9.63
2018-04-22T02:21:11.557Z,9.60
2018-04-22T02:23:39.017Z,9.20
2018-04-22T02:26:06.471Z,9.67
2018-04-22T02:28:33.941Z,9.83
2018-04-22T02:31:01.422Z,9.60
2018-04-22T02:33:28.888Z,9.17
2018-04-22T02:35:56.330Z,8.43
2018-04-22T02:38:23.790Z,9.37
2018-04-22T02:40:51.232Z,10.30
2018-04-22T02:43:19.463Z,8.93
2018-04-22T02:45:46.933Z,8.80
2018-04-22T02:48:14.408Z,8.83
2018-04-22T02:50:43.486Z,8.80
2018-04-22T02:53:10.929Z,8.67
2018-04-22T02:55:38.389Z,9.10
2018-04-22T02:58:06.125Z,9.57
2018-04-22T03:00:34.456Z,8.93
2018-04-22T03:03:01.909Z,10.27
2018-04-22T03:05:30.161Z,9.33
2018-04-22T03:07:57.633Z,11.20
2018-04-22T03:10:25.100Z,9.37
2018-04-22T03:12:52.558Z,9.47
2018-04-22T03:15:20.006Z,9.53
2018-04-22T03:17:47.469Z,10.03
2018-04-22T03:20:14.909Z,9.60
2018-04-22T03:22:43.148Z,10.53
2018-04-22T03:25:10.613Z,9.60
2018-04-22T03:27:38.077Z,9.77
2018-04-22T03:30:05.533Z,9.80
2018-04-22T03:32:33.001Z,9.97
2018-04-22T03:35:00.465Z,9.47
2018-04-22T03:37:27.921Z,8.63
2018-04-22T03:39:55.378Z,8.77
2018-04-22T03:42:22.827Z,8.70
2018-04-22T03:44:50.303Z,9.03
2018-04-22T03:47:17.754Z,8.90
2018-04-22T03:49:45.240Z,9.20
2018-04-22T03:52:12.693Z,8.87
2018-04-22T03:54:40.162Z,9.30
2018-04-22T03:57:07.622Z,9.27
2018-04-22T03:59:35.103Z,9.10
2018-04-22T04:02:02.548Z,9.50
2018-04-22T04:04:29.994Z,9.53
2018-04-22T04:06:57.466Z,9.27
2018-04-22T04:09:24.938Z,8.47
2018-04-22T04:11:52.398Z,9.23
2018-04-22T04:14:19.860Z,8.60
2018-04-22T04:16:47.313Z,8.80
2018-04-22T04:19:26.657Z,9.73
2018-04-22T04:22:06.193Z,9.33
2018-04-22T04:25:08.286Z,9.60
2018-04-22T04:27:49.906Z,10.20
2018-04-22T04:30:17.380Z,10.23
2018-04-22T04:32:44.859Z,10.33
2018-04-22T04:35:12.315Z,10.33
2018-04-22T04:37:39.779Z,10.00
2018-04-22T04:40:07.245Z,10.10
2018-04-22T04:42:34.721Z,10.40
2018-04-22T04:45:02.188Z,9.10
2018-04-22T04:47:29.619Z,9.47
2018-04-22T04:49:57.090Z,10.13
2018-04-22T04:52:24.553Z,9.83
2018-04-22T04:54:52.000Z,9.83
2018-04-22T04:57:19.463Z,9.07
2018-04-22T04:59:46.910Z,9.90
2018-04-22T05:02:14.354Z,9.40
2018-04-22T05:04:42.692Z,9.97
2018-04-22T05:07:10.151Z,10.00
2018-04-22T05:09:37.606Z,10.17
2018-04-22T05:12:05.073Z,10.23
2018-04-22T05:14:32.637Z,9.60
2018-04-22T05:17:00.202Z,10.47
2018-04-22T05:19:27.645Z,10.07
2018-04-22T05:21:55.106Z,10.30
2018-04-22T05:24:22.574Z,10.67
2018-04-22T05:26:50.030Z,10.67
2018-04-22T05:29:17.490Z,10.03
2018-04-22T05:31:44.925Z,10.20
2018-04-22T05:34:12.441Z,10.30
2018-04-22T05:36:39.900Z,10.07
2018-04-22T05:39:07.374Z,11.53
2018-04-22T05:41:34.846Z,11.63
2018-04-22T05:44:02.317Z,12.30
2018-04-22T05:46:29.767Z,12.87
2018-04-22T05:48:57.525Z,11.70
2018-04-22T05:51:24.993Z,13.17
2018-04-22T05:53:52.446Z,12.70
2018-04-22T05:56:19.915Z,12.87
2018-04-22T05:58:47.377Z,12.50
2018-04-22T06:01:14.842Z,11.90
2018-04-22T06:03:42.301Z,11.83
2018-04-22T06:06:09.869Z,12.53
2018-04-22T06:08:37.360Z,11.83
2018-04-22T06:11:04.788Z,12.40
2018-04-22T06:13:32.250Z,12.47
2018-04-22T06:15:59.730Z,12.63
2018-04-22T06:18:27.185Z,12.70
2018-04-22T06:20:54.665Z,12.30
2018-04-22T06:23:22.206Z,12.07
2018-04-22T06:25:49.667Z,11.43
2018-04-22T06:28:17.176Z,11.17
2018-04-22T06:30:44.594Z,11.97
2018-04-22T06:33:12.062Z,10.57
2018-04-22T06:35:39.624Z,9.87
2018-04-22T06:38:07.081Z,9.80
2018-04-22T06:40:34.529Z,9.70
2018-04-22T06:43:01.999Z,10.73
2018-04-22T06:45:29.441Z,10.07
2018-04-22T06:47:56.931Z,11.07
2018-04-22T06:50:24.369Z,9.77
2018-04-22T06:52:51.831Z,9.07
2018-04-22T06:55:19.290Z,10.33
2018-04-22T06:57:46.760Z,9.47
2018-04-22T07:00:14.202Z,9.50
2018-04-22T07:02:41.757Z,10.27
2018-04-22T07:05:09.961Z,9.87
2018-04-22T07:07:37.526Z,9.53
2018-04-22T07:10:04.992Z,8.37
2018-04-22T07:12:32.446Z,8.20
2018-04-22T07:14:59.938Z,8.30
2018-04-22T07:17:27.506Z,7.87
2018-04-22T07:19:54.954Z,8.03
2018-04-22T07:22:22.538Z,8.83
2018-04-22T07:24:50.110Z,8.10
2018-04-22T07:27:17.582Z,7.97
2018-04-22T07:29:46.533Z,7.57
2018-04-22T07:32:14.046Z,6.70
2018-04-22T07:34:41.454Z,8.13
2018-04-22T07:37:08.946Z,7.40
2018-04-22T07:39:36.403Z,7.60
2018-04-22T07:42:03.872Z,7.40
2018-04-22T07:44:31.308Z,6.97
2018-04-22T07:46:58.797Z,6.80
2018-04-22T07:49:26.262Z,7.00
2018-04-22T07:51:53.717Z,7.17
2018-04-22T07:54:21.284Z,6.60
2018-04-22T07:56:48.754Z,7.20
2018-04-22T07:59:16.309Z,7.27
2018-04-22T08:01:43.777Z,7.60
2018-04-22T08:04:11.234Z,7.10
2018-04-22T08:06:38.697Z,7.13
2018-04-22T08:09:06.149Z,7.73
2018-04-22T08:11:33.609Z,7.80
2018-04-22T08:14:01.090Z,7.00
2018-04-22T08:16:28.756Z,7.57
2018-04-22T08:18:56.230Z,7.53
2018-04-22T08:21:23.672Z,7.37
2018-04-22T08:23:51.216Z,7.83
2018-04-22T08:26:18.713Z,7.37
2018-04-22T08:28:46.186Z,7.63
2018-04-22T08:31:13.627Z,7.47
2018-04-22T08:33:41.270Z,7.00
2018-04-22T08:36:08.766Z,7.93
2018-04-22T08:38:36.244Z,7.27
2018-04-22T08:41:03.698Z,7.47
2018-04-22T08:43:31.133Z,7.03
2018-04-22T08:45:58.624Z,7.10
2018-04-22T08:48:26.078Z,7.23
2018-04-22T08:50:53.526Z,6.87
2018-04-22T08:53:21.010Z,6.10
2018-04-22T08:55:48.469Z,6.60
2018-04-22T08:58:15.919Z,6.47
2018-04-22T09:00:43.396Z,6.40
2018-04-22T09:03:10.834Z,6.70
2018-04-22T09:05:38.295Z,6.40
2018-04-22T09:08:05.781Z,6.87
2018-04-22T09:10:33.249Z,5.80
2018-04-22T09:13:00.812Z,6.47
2018-04-22T09:15:28.370Z,6.33
2018-04-22T09:17:55.823Z,7.23
2018-04-22T09:20:23.340Z,6.27
2018-04-22T09:22:50.745Z,6.50
2018-04-22T09:25:18.290Z,6.20
2018-04-22T09:27:45.778Z,6.20
2018-04-22T09:30:13.350Z,6.57
2018-04-22T09:32:40.790Z,6.67
2018-04-22T09:35:08.266Z,5.77
2018-04-22T09:37:35.725Z,6.47
2018-04-22T09:40:03.179Z,5.87
2018-04-22T09:42:30.653Z,6.07
2018-04-22T09:44:58.108Z,6.10
2018-04-22T09:47:25.554Z,5.53
2018-04-22T09:49:53.018Z,6.23
2018-04-22T09:52:20.504Z,5.33
2018-04-22T09:54:47.969Z,5.43
2018-04-22T09:57:15.415Z,5.70
2018-04-22T09:59:42.878Z,5.53
2018-04-22T10:02:16.283Z,5.20
2018-04-22T10:04:47.390Z,5.57
2018-04-22T10:07:15.615Z,4.83
2018-04-22T10:09:43.053Z,4.90
2018-04-22T10:12:10.519Z,5.00
2018-04-22T10:14:37.985Z,4.30
2018-04-22T10:17:05.469Z,4.57
2018-04-22T10:19:32.942Z,5.00
2018-04-22T10:22:00.408Z,4.93
2018-04-22T10:24:27.870Z,4.90
2018-04-22T10:26:55.344Z,4.47
2018-04-22T10:29:22.801Z,4.67
2018-04-22T10:31:50.250Z,4.83
2018-04-22T10:34:17.798Z,4.70
2018-04-22T10:36:45.256Z,4.97
2018-04-22T10:39:12.724Z,4.60
2018-04-22T10:41:40.369Z,4.17
2018-04-22T10:44:07.822Z,4.60
2018-04-22T10:46:35.278Z,4.63
2018-04-22T10:49:02.758Z,5.13
2018-04-22T10:51:30.218Z,4.70
2018-04-22T10:53:57.686Z,4.63
2018-04-22T10:56:25.142Z,4.90
2018-04-22T10:58:52.618Z,4.97
2018-04-22T11:01:20.082Z,5.30
2018-04-22T11:03:47.942Z,5.33
2018-04-22T11:06:15.417Z,5.07
2018-04-22T11:08:42.877Z,5.60
2018-04-22T11:11:10.349Z,5.20
2018-04-22T11:13:37.915Z,5.53
2018-04-22T11:16:05.362Z,4.77
2018-04-22T11:18:32.828Z,5.27
2018-04-22T11:21:00.288Z,4.83
2018-04-22T11:23:27.887Z,4.70
2018-04-22T11:25:55.333Z,4.43
2018-04-22T11:28:22.797Z,4.83
2018-04-22T11:30:50.258Z,5.13
2018-04-22T11:33:17.710Z,4.80
2018-04-22T11:35:45.187Z,4.70
2018-04-22T11:38:12.643Z,4.53
2018-04-22T11:40:40.123Z,4.93
2018-04-22T11:43:07.561Z,4.70
2018-04-22T11:45:35.009Z,4.63
2018-04-22T11:48:02.502Z,5.10
2018-04-22T11:50:29.953Z,4.97
2018-04-22T11:52:57.421Z,4.93
2018-04-22T11:55:24.857Z,4.63
2018-04-22T11:57:52.526Z,5.53
2018-04-22T12:00:19.976Z,4.33
2018-04-22T12:02:48.305Z,4.40
2018-04-22T12:05:15.757Z,4.97
2018-04-22T12:07:43.399Z,4.17
2018-04-22T12:10:10.856Z,5.23
2018-04-22T12:12:38.358Z,4.60
2018-04-22T12:15:05.905Z,4.50
2018-04-22T12:17:33.373Z,4.90
2018-04-22T12:20:00.837Z,4.50
2018-04-22T12:22:28.302Z,4.90
2018-04-22T12:24:55.770Z,4.37
2018-04-22T12:27:23.222Z,4.53
2018-04-22T12:29:50.675Z,5.67
2018-04-22T12:32:18.138Z,38.10
2018-04-22T12:34:45.710Z,5.53
2018-04-22T12:37:13.178Z,4.43
2018-04-22T12:39:40.633Z,5.07
2018-04-22T12:42:08.109Z,10.67
2018-04-22T12:44:35.572Z,126.57
2018-04-22T12:47:03.058Z,271.23
2018-04-22T12:49:30.668Z,77.53
2018-04-22T12:51:58.176Z,42.97
2018-04-22T12:54:25.725Z,21.40
2018-04-22T12:56:53.183Z,11.60
2018-04-22T12:59:20.809Z,9.73
2018-04-22T13:01:48.281Z,8.17
2018-04-22T13:04:15.763Z,6.90
2018-04-22T13:06:43.218Z,6.10
2018-04-22T13:09:10.767Z,5.10
2018-04-22T13:11:38.205Z,4.57
2018-04-22T13:14:06.556Z,3.93
2018-04-22T13:16:33.992Z,3.70
2018-04-22T13:19:01.482Z,3.97
2018-04-22T13:21:28.982Z,3.80
2018-04-22T13:23:56.475Z,4.00
2018-04-22T13:26:23.913Z,3.63
2018-04-22T13:28:52.130Z,3.60
2018-04-22T13:31:19.585Z,3.23
2018-04-22T13:33:47.076Z,3.73
2018-04-22T13:36:14.520Z,3.40
2018-04-22T13:38:41.997Z,3.23
2018-04-22T13:41:09.443Z,3.87
2018-04-22T13:43:37.113Z,3.40
2018-04-22T13:46:04.681Z,3.63
2018-04-22T13:48:32.159Z,3.50
2018-04-22T13:50:59.601Z,3.87
2018-04-22T13:53:27.068Z,3.60
2018-04-22T13:55:54.506Z,3.40
2018-04-22T13:58:22.092Z,4.40
2018-04-22T14:00:49.556Z,3.83
2018-04-22T14:03:17.018Z,3.63
2018-04-22T14:05:44.458Z,3.80
2018-04-22T14:08:11.926Z,3.43
2018-04-22T14:10:39.382Z,3.40
2018-04-22T14:13:06.845Z,3.60
2018-04-22T14:15:34.311Z,3.37
2018-04-22T14:18:01.774Z,3.70
2018-04-22T14:20:29.223Z,3.33
2018-04-22T14:22:56.698Z,3.70
2018-04-22T14:25:24.502Z,3.77
2018-04-22T14:27:51.953Z,3.63
2018-04-22T14:30:19.491Z,3.70
2018-04-22T14:32:46.985Z,3.37
2018-04-22T14:35:14.446Z,3.50
2018-04-22T14:37:41.918Z,3.23
2018-04-22T14:40:09.478Z,3.30
2018-04-22T14:42:37.211Z,3.20
2018-04-22T14:45:16.665Z,3.37
2018-04-22T14:47:44.411Z,4.03
2018-04-22T14:50:11.904Z,3.67
2018-04-22T14:52:39.361Z,3.63
2018-04-22T14:55:06.834Z,3.50
2018-04-22T14:57:34.290Z,3.57
2018-04-22T15:00:01.747Z,3.67
2018-04-22T15:02:29.221Z,3.27
2018-04-22T15:04:56.690Z,3.50
2018-04-22T15:07:24.146Z,3.07
2018-04-22T15:09:51.615Z,3.33
2018-04-22T15:12:19.083Z,3.60
2018-04-22T15:14:46.639Z,3.50
2018-04-22T15:17:14.203Z,3.67
2018-04-22T15:19:41.680Z,3.50
2018-04-22T15:22:09.118Z,3.90
2018-04-22T15:24:36.598Z,3.77
2018-04-22T15:27:04.050Z,3.80
2018-04-22T15:29:31.507Z,3.80
2018-04-22T15:31:59.155Z,4.00
2018-04-22T15:34:26.774Z,3.80
2018-04-22T15:36:54.248Z,4.00
2018-04-22T15:39:22.466Z,3.20
2018-04-22T15:41:50.006Z,4.50
2018-04-22T15:44:17.521Z,3.67
2018-04-22T15:46:44.973Z,3.53
2018-04-22T15:49:12.433Z,3.47
2018-04-22T15:51:39.888Z,4.20
2018-04-22T15:54:07.361Z,4.73
2018-04-22T15:56:34.819Z,3.53
2018-04-22T15:59:02.294Z,4.10
2018-04-22T16:01:29.853Z,3.53
2018-04-22T16:03:57.421Z,4.00
2018-04-22T16:06:24.889Z,3.63
2018-04-22T16:08:52.349Z,3.83
2018-04-22T16:11:19.788Z,3.93
2018-04-22T16:13:47.268Z,3.53
2018-04-22T16:16:14.714Z,4.17
2018-04-22T16:18:42.167Z,3.57
2018-04-22T16:21:09.686Z,3.60
2018-04-22T16:23:37.126Z,4.07
2018-04-22T16:26:04.563Z,2.87
2018-04-22T16:28:32.033Z,3.87
2018-04-22T16:30:59.506Z,3.80
2018-04-22T16:33:27.078Z,3.67
2018-04-22T16:35:54.518Z,5.10
2018-04-22T16:38:22.705Z,3.70
2018-04-22T16:40:50.174Z,3.33
2018-04-22T16:43:17.734Z,3.50
2018-04-22T16:45:45.197Z,3.87
2018-04-22T16:48:12.646Z,4.30
2018-04-22T16:50:40.111Z,3.43
2018-04-22T16:53:07.578Z,4.13
2018-04-22T16:55:35.288Z,3.83
2018-04-22T16:58:02.753Z,3.40
2018-04-22T17:00:30.191Z,3.33
2018-04-22T17:02:57.749Z,3.77
2018-04-22T17:05:25.315Z,3.47
2018-04-22T17:07:52.921Z,3.60
2018-04-22T17:10:21.161Z,3.97
2018-04-22T17:12:48.647Z,4.10
2018-04-22T17:15:16.095Z,3.63
2018-04-22T17:17:43.541Z,3.30
2018-04-22T17:20:11.005Z,3.60
2018-04-22T17:22:38.796Z,4.13
2018-04-22T17:25:06.248Z,3.83
2018-04-22T17:27:33.719Z,3.40
2018-04-22T17:30:01.555Z,3.83
2018-04-22T17:32:29.014Z,3.90
2018-04-22T17:34:56.962Z,3.80
2018-04-22T17:37:25.174Z,3.43
2018-04-22T17:39:52.657Z,3.67
2018-04-22T17:42:20.151Z,3.87
2018-04-22T17:44:48.434Z,3.63
2018-04-22T17:47:15.938Z,3.77
2018-04-22T17:49:43.389Z,4.30
2018-04-22T17:52:11.601Z,3.77
2018-04-22T17:54:39.085Z,3.90
2018-04-22T17:57:06.571Z,4.10
2018-04-22T17:59:34.061Z,3.77
2018-04-22T18:02:01.549Z,3.60
2018-04-22T18:04:29.029Z,4.17
2018-04-22T18:06:56.583Z,4.53
2018-04-22T18:09:24.054Z,3.97
2018-04-22T18:11:51.493Z,3.73
2018-04-22T18:14:18.967Z,3.70
2018-04-22T18:16:46.424Z,5.17
2018-04-22T18:19:14.160Z,5.00
2018-04-22T18:21:42.377Z,4.70
2018-04-22T18:24:09.838Z,4.70
2018-04-22T18:26:37.304Z,3.93
2018-04-22T18:29:04.770Z,3.73
2018-04-22T18:31:32.326Z,3.73
2018-04-22T18:33:59.790Z,3.90
2018-04-22T18:36:27.434Z,4.13
2018-04-22T18:38:54.865Z,4.03
2018-04-22T18:41:23.194Z,3.63
2018-04-22T18:43:50.762Z,3.80
2018-04-22T18:46:18.228Z,3.70
2018-04-22T18:48:45.698Z,3.83
2018-04-22T18:51:13.156Z,4.53
2018-04-22T18:53:40.616Z,4.23
2018-04-22T18:56:08.083Z,4.53
2018-04-22T18:58:35.550Z,3.93
2018-04-22T19:01:03.038Z,4.17
2018-04-22T19:03:30.569Z,4.30
2018-04-22T19:05:58.031Z,4.10
2018-04-22T19:08:25.474Z,3.97
2018-04-22T19:10:52.937Z,4.27
2018-04-22T19:13:20.378Z,4.43
2018-04-22T19:15:47.877Z,3.93
2018-04-22T19:18:15.420Z,3.93
2018-04-22T19:20:42.882Z,3.53
2018-04-22T19:23:10.338Z,3.80
2018-04-22T19:25:39.474Z,4.30
2018-04-22T19:28:06.925Z,4.10
2018-04-22T19:30:34.389Z,4.10
2018-04-22T19:33:01.986Z,3.70
2018-04-22T19:35:29.477Z,4.03
2018-04-22T19:37:56.995Z,3.77
2018-04-22T19:40:24.452Z,3.80
2018-04-22T19:42:51.981Z,4.30
2018-04-22T19:45:19.462Z,4.23
2018-04-22T19:47:46.953Z,4.00
2018-04-22T19:50:14.499Z,4.03
2018-04-22T19:52:42.125Z,4.27
2018-04-22T19:55:09.586Z,4.77
2018-04-22T19:57:37.808Z,4.47
2018-04-22T20:00:05.298Z,4.50
2018-04-22T20:02:32.779Z,4.60
2018-04-22T20:05:00.978Z,4.27
2018-04-22T20:07:28.442Z,5.00
2018-04-22T20:09:55.958Z,5.00
2018-04-22T20:12:23.418Z,4.97
2018-04-22T20:14:51.250Z,4.87
2018-04-22T20:17:18.816Z,5.53
2018-04-22T20:19:46.249Z,5.33
2018-04-22T20:22:13.765Z,4.70
2018-04-22T20:24:41.233Z,4.73
2018-04-22T20:27:08.715Z,5.43
2018-04-22T20:29:36.184Z,5.17
2018-04-22T20:32:03.727Z,4.97
2018-04-22T20:34:31.185Z,5.30
2018-04-22T20:36:58.746Z,5.67
2018-04-22T20:39:26.256Z,5.07
2018-04-22T20:41:54.477Z,5.20
2018-04-22T20:44:22.028Z,5.33
2018-04-22T20:46:49.449Z,5.30
2018-04-22T20:49:16.901Z,5.40
2018-04-22T20:51:44.444Z,5.20
2018-04-22T20:54:12.288Z,5.23
2018-04-22T20:56:39.730Z,5.73
2018-04-22T20:59:07.959Z,5.30
2018-04-22T21:01:35.417Z,5.73
2018-04-22T21:04:02.989Z,5.03
2018-04-22T21:06:30.450Z,5.00
2018-04-22T21:08:57.988Z,5.00
2018-04-22T21:11:25.422Z,5.60
2018-04-22T21:13:52.888Z,6.37
2018-04-22T21:16:20.362Z,5.27
2018-04-22T21:18:47.856Z,4.53
2018-04-22T21:21:15.330Z,4.87
2018-04-22T21:23:42.786Z,4.73
2018-04-22T21:26:10.246Z,5.30
2018-04-22T21:28:37.743Z,4.90
2018-04-22T21:31:05.281Z,5.07
2018-04-22T21:33:32.734Z,4.90
2018-04-22T21:36:00.177Z,4.70
2018-04-22T21:38:27.640Z,5.00
2018-04-22T21:40:55.078Z,4.93
2018-04-22T21:43:23.309Z,4.73
2018-04-22T21:45:51.458Z,4.60
2018-04-22T21:48:18.905Z,4.83
2018-04-22T21:50:46.375Z,4.23
2018-04-22T21:53:13.844Z,5.37
2018-04-22T21:55:41.497Z,4.77
2018-04-22T21:58:08.946Z,4.80
2018-04-22T22:00:36.387Z,4.50
2018-04-22T22:03:03.846Z,4.30
2018-04-22T22:05:31.386Z,4.40
2018-04-22T22:07:58.844Z,4.60
2018-04-22T22:10:26.302Z,4.90
2018-04-22T22:12:53.773Z,4.50
2018-04-22T22:15:21.249Z,4.80
2018-04-22T22:17:48.697Z,4.50
2018-04-22T22:20:16.158Z,4.60
2018-04-22T22:22:43.622Z,4.53
2018-04-22T22:25:11.112Z,4.40
2018-04-22T22:27:38.575Z,4.93
2018-04-22T22:30:06.049Z,4.80
2018-04-22T22:32:34.133Z,4.63
2018-04-22T22:35:02.373Z,4.90
2018-04-22T22:37:29.842Z,4.60
2018-04-22T22:39:57.393Z,4.30
2018-04-22T22:42:24.838Z,4.07
2018-04-22T22:44:52.323Z,4.33
2018-04-22T22:47:19.767Z,4.87
2018-04-22T22:49:47.241Z,5.07
2018-04-22T22:52:14.700Z,4.40
2018-04-22T22:54:42.169Z,4.77
2018-04-22T22:57:09.664Z,4.63
2018-04-22T22:59:37.106Z,5.10
2018-04-22T23:02:04.570Z,5.00
2018-04-22T23:04:32.006Z,4.73
2018-04-22T23:06:59.473Z,5.67
2018-04-22T23:09:26.919Z,5.37
2018-04-22T23:11:54.383Z,5.10
2018-04-22T23:14:22.154Z,4.67
2018-04-22T23:16:49.613Z,4.43
2018-04-22T23:19:17.064Z,5.17
2018-04-22T23:21:44.531Z,4.57
2018-04-22T23:24:11.976Z,4.67
2018-04-22T23:26:40.310Z,4.90
2018-04-22T23:29:07.759Z,4.50
2018-04-22T23:31:35.211Z,4.90
2018-04-22T23:34:02.669Z,5.07
2018-04-22T23:36:30.139Z,4.93
2018-04-22T23:38:57.631Z,4.37
2018-04-22T23:41:25.072Z,5.27
2018-04-22T23:43:52.523Z,4.90
2018-04-22T23:46:20.008Z,4.77
2018-04-22T23:48:47.574Z,4.40
2018-04-22T23:51:15.041Z,4.97
2018-04-22T23:53:42.482Z,4.93
2018-04-22T23:56:09.941Z,4.90
2018-04-22T23:58:37.434Z,4.70
